sensor_id;sensor_type;location;lat;lon;timestamp;pressure;altitude;pressure_sealevel;temperature;humidity
31681;BME280;18281;51.364;9.566;2024-02-28T00:01:00;100276.34;;;-0.55;100.00
31681;BME280;18281;51.364;9.566;2024-02-28T00:03:25;100277.34;;;-0.81;100.00
31681;BME280;18281;51.364;9.566;2024-02-28T00:05:56;100280.88;;;-1.05;100.00
31681;BME280;18281;51.364;9.566;2024-02-28T00:08:25;100274.81;;;-1.04;100.00
31681;BME280;18281;51.364;9.566;2024-02-28T00:10:52;100286.94;;;-1.32;100.00
31681;BME280;18281;51.364;9.566;2024-02-28T00:13:21;100284.34;;;-1.18;100.00
31681;BME280;18281;51.364;9.566;2024-02-28T00:15:48;100282.53;;;-0.91;100.00
31681;BME280;18281;51.364;9.566;2024-02-28T00:18:13;100290.19;;;-0.74;100.00
31681;BME280;18281;51.364;9.566;2024-02-28T00:20:39;100292.78;;;-0.76;100.00
31681;BME280;18281;51.364;9.566;2024-02-28T00:23:04;100291.94;;;-0.81;100.00
31681;BME280;18281;51.364;9.566;2024-02-28T00:25:30;100309.94;;;-0.70;100.00
31681;BME280;18281;51.364;9.566;2024-02-28T00:27:57;100306.47;;;-0.63;100.00
31681;BME280;18281;51.364;9.566;2024-02-28T00:30:23;100315.94;;;-0.68;100.00
31681;BME280;18281;51.364;9.566;2024-02-28T00:32:48;100329.69;;;-0.69;100.00
31681;BME280;18281;51.364;9.566;2024-02-28T00:35:14;100322.78;;;-0.61;100.00
31681;BME280;18281;51.364;9.566;2024-02-28T00:37:39;100321.09;;;-0.62;100.00
31681;BME280;18281;51.364;9.566;2024-02-28T00:40:05;100318.47;;;-0.56;100.00
31681;BME280;18281;51.364;9.566;2024-02-28T00:42:31;100315.03;;;-0.53;100.00
31681;BME280;18281;51.364;9.566;2024-02-28T00:44:56;100318.56;;;-0.71;100.00
31681;BME280;18281;51.364;9.566;2024-02-28T00:47:21;100321.13;;;-0.74;100.00
31681;BME280;18281;51.364;9.566;2024-02-28T00:49:47;100322.91;;;-0.89;100.00
31681;BME280;18281;51.364;9.566;2024-02-28T00:52:12;100329.81;;;-0.95;100.00
31681;BME280;18281;51.364;9.566;2024-02-28T00:54:37;100334.91;;;-0.88;100.00
31681;BME280;18281;51.364;9.566;2024-02-28T00:57:03;100340.91;;;-0.81;100.00
31681;BME280;18281;51.364;9.566;2024-02-28T00:59:28;100325.41;;;-0.70;100.00
31681;BME280;18281;51.364;9.566;2024-02-28T01:01:54;100323.66;;;-0.59;100.00
31681;BME280;18281;51.364;9.566;2024-02-28T01:04:19;100333.13;;;-0.64;100.00
31681;BME280;18281;51.364;9.566;2024-02-28T01:06:44;100333.13;;;-0.58;100.00
31681;BME280;18281;51.364;9.566;2024-02-28T01:09:10;100337.41;;;-0.60;100.00
31681;BME280;18281;51.364;9.566;2024-02-28T01:11:35;100336.53;;;-0.51;100.00
31681;BME280;18281;51.364;9.566;2024-02-28T01:14:01;100339.94;;;-0.51;100.00
31681;BME280;18281;51.364;9.566;2024-02-28T01:16:26;100339.94;;;-0.51;100.00
31681;BME280;18281;51.364;9.566;2024-02-28T01:18:53;100339.09;;;-0.50;100.00
31681;BME280;18281;51.364;9.566;2024-02-28T01:21:18;100347.69;;;-0.51;100.00
31681;BME280;18281;51.364;9.566;2024-02-28T01:23:44;100345.97;;;-0.52;100.00
31681;BME280;18281;51.364;9.566;2024-02-28T01:26:09;100342.53;;;-0.52;100.00
31681;BME280;18281;51.364;9.566;2024-02-28T01:28:35;100342.53;;;-0.51;100.00
31681;BME280;18281;51.364;9.566;2024-02-28T01:31:00;100347.66;;;-0.48;100.00
31681;BME280;18281;51.364;9.566;2024-02-28T01:33:26;100344.22;;;-0.47;100.00
31681;BME280;18281;51.364;9.566;2024-02-28T01:35:51;100342.50;;;-0.48;100.00
31681;BME280;18281;51.364;9.566;2024-02-28T01:38:17;100351.19;;;-0.67;100.00
31681;BME280;18281;51.364;9.566;2024-02-28T01:40:46;100356.38;;;-0.81;100.00
31681;BME280;18281;51.364;9.566;2024-02-28T01:43:12;100350.34;;;-0.65;100.00
31681;BME280;18281;51.364;9.566;2024-02-28T01:45:38;100355.50;;;-0.69;100.00
31681;BME280;18281;51.364;9.566;2024-02-28T01:48:03;100355.47;;;-0.61;100.00
31681;BME280;18281;51.364;9.566;2024-02-28T01:50:31;100349.41;;;-0.54;100.00
31681;BME280;18281;51.364;9.566;2024-02-28T01:52:57;100339.09;;;-0.50;100.00
31681;BME280;18281;51.364;9.566;2024-02-28T01:55:23;100344.25;;;-0.50;100.00
31681;BME280;18281;51.364;9.566;2024-02-28T01:57:48;100350.28;;;-0.57;100.00
31681;BME280;18281;51.364;9.566;2024-02-28T02:00:15;100356.41;;;-0.86;100.00
31681;BME280;18281;51.364;9.566;2024-02-28T02:02:42;100350.31;;;-0.66;100.00
31681;BME280;18281;51.364;9.566;2024-02-28T02:05:09;100340.84;;;-0.58;100.00
31681;BME280;18281;51.364;9.566;2024-02-28T02:07:34;100341.69;;;-0.56;100.00
31681;BME280;18281;51.364;9.566;2024-02-28T02:10:01;100332.22;;;-0.52;100.00
31681;BME280;18281;51.364;9.566;2024-02-28T02:12:26;100333.06;;;-0.52;100.00
31681;BME280;18281;51.364;9.566;2024-02-28T02:14:52;100333.06;;;-0.52;100.00
31681;BME280;18281;51.364;9.566;2024-02-28T02:17:17;100331.38;;;-0.56;100.00
31681;BME280;18281;51.364;9.566;2024-02-28T02:19:42;100336.53;;;-0.64;100.00
31681;BME280;18281;51.364;9.566;2024-02-28T02:22:08;100338.34;;;-0.83;100.00
31681;BME280;18281;51.364;9.566;2024-02-28T02:24:35;100353.00;;;-1.00;100.00
31681;BME280;18281;51.364;9.566;2024-02-28T02:27:02;100352.03;;;-0.65;100.00
31681;BME280;18281;51.364;9.566;2024-02-28T02:29:28;100345.25;;;-1.00;100.00
31681;BME280;18281;51.364;9.566;2024-02-28T02:31:54;100348.72;;;-0.97;100.00
31681;BME280;18281;51.364;9.566;2024-02-28T02:34:19;100349.53;;;-0.96;100.00
31681;BME280;18281;51.364;9.566;2024-02-28T02:36:44;100349.56;;;-0.91;100.00
31681;BME280;18281;51.364;9.566;2024-02-28T02:39:10;100349.50;;;-0.76;100.00
31681;BME280;18281;51.364;9.566;2024-02-28T02:41:35;100341.72;;;-0.67;100.00
31681;BME280;18281;51.364;9.566;2024-02-28T02:44:01;100342.56;;;-0.61;100.00
31681;BME280;18281;51.364;9.566;2024-02-28T02:46:26;100341.75;;;-0.68;100.00
31681;BME280;18281;51.364;9.566;2024-02-28T02:48:52;100336.53;;;-0.57;100.00
31681;BME280;18281;51.364;9.566;2024-02-28T02:51:19;100330.53;;;-0.56;100.00
31681;BME280;18281;51.364;9.566;2024-02-28T02:53:44;100334.00;;;-0.62;100.00
31681;BME280;18281;51.364;9.566;2024-02-28T02:56:10;100326.22;;;-0.57;100.00
31681;BME280;18281;51.364;9.566;2024-02-28T02:58:35;100330.50;;;-0.49;100.00
31681;BME280;18281;51.364;9.566;2024-02-28T03:01:01;100335.63;;;-0.50;100.00
31681;BME280;18281;51.364;9.566;2024-02-28T03:03:26;100333.91;;;-0.48;100.00
31681;BME280;18281;51.364;9.566;2024-02-28T03:05:51;100334.78;;;-0.44;100.00
31681;BME280;18281;51.364;9.566;2024-02-28T03:08:17;100331.31;;;-0.47;100.00
31681;BME280;18281;51.364;9.566;2024-02-28T03:10:42;100331.31;;;-0.43;100.00
31681;BME280;18281;51.364;9.566;2024-02-28T03:13:07;100322.72;;;-0.45;100.00
31681;BME280;18281;51.364;9.566;2024-02-28T03:15:33;100324.44;;;-0.46;100.00
31681;BME280;18281;51.364;9.566;2024-02-28T03:17:59;100326.13;;;-0.43;100.00
31681;BME280;18281;51.364;9.566;2024-02-28T03:20:24;100329.59;;;-0.48;100.00
31681;BME280;18281;51.364;9.566;2024-02-28T03:22:51;100332.25;;;-0.66;100.00
31681;BME280;18281;51.364;9.566;2024-02-28T03:25:16;100338.28;;;-0.70;100.00
31681;BME280;18281;51.364;9.566;2024-02-28T03:27:41;100333.94;;;-0.57;100.00
31681;BME280;18281;51.364;9.566;2024-02-28T03:30:07;100334.81;;;-0.57;100.00
31681;BME280;18281;51.364;9.566;2024-02-28T03:32:32;100345.25;;;-0.85;100.00
31681;BME280;18281;51.364;9.566;2024-02-28T03:34:58;100340.03;;;-0.74;100.00
31681;BME280;18281;51.364;9.566;2024-02-28T03:37:23;100334.81;;;-0.54;100.00
31681;BME280;18281;51.364;9.566;2024-02-28T03:39:49;100333.09;;;-0.61;100.00
31681;BME280;18281;51.364;9.566;2024-02-28T03:42:14;100338.25;;;-0.55;100.00
31681;BME280;18281;51.364;9.566;2024-02-28T03:44:39;100340.81;;;-0.53;100.00
31681;BME280;18281;51.364;9.566;2024-02-28T03:47:05;100345.22;;;-0.82;100.00
31681;BME280;18281;51.364;9.566;2024-02-28T03:49:30;100349.50;;;-0.71;100.00
31681;BME280;18281;51.364;9.566;2024-02-28T03:51:55;100350.34;;;-0.72;100.00
31681;BME280;18281;51.364;9.566;2024-02-28T03:54:21;100358.97;;;-0.92;100.00
31681;BME280;18281;51.364;9.566;2024-02-28T03:56:46;100367.59;;;-0.88;100.00
31681;BME280;18281;51.364;9.566;2024-02-28T03:59:12;100371.06;;;-1.03;100.00
31681;BME280;18281;51.364;9.566;2024-02-28T04:01:37;100369.31;;;-0.95;100.00
31681;BME280;18281;51.364;9.566;2024-02-28T04:04:03;100371.03;;;-0.85;100.00
31681;BME280;18281;51.364;9.566;2024-02-28T04:06:29;100367.56;;;-0.87;100.00
31681;BME280;18281;51.364;9.566;2024-02-28T04:08:55;100364.97;;;-0.77;100.00
31681;BME280;18281;51.364;9.566;2024-02-28T04:11:20;100370.97;;;-0.69;100.00
31681;BME280;18281;51.364;9.566;2024-02-28T04:13:46;100367.50;;;-0.60;100.00
31681;BME280;18281;51.364;9.566;2024-02-28T04:16:12;100372.66;;;-0.64;100.00
31681;BME280;18281;51.364;9.566;2024-02-28T04:18:37;100375.25;;;-0.65;100.00
31681;BME280;18281;51.364;9.566;2024-02-28T04:21:03;100388.16;;;-0.68;100.00
31681;BME280;18281;51.364;9.566;2024-02-28T04:23:28;100394.19;;;-0.80;100.00
31681;BME280;18281;51.364;9.566;2024-02-28T04:25:54;100402.75;;;-0.70;100.00
31681;BME280;18281;51.364;9.566;2024-02-28T04:28:19;100413.91;;;-0.64;100.00
31681;BME280;18281;51.364;9.566;2024-02-28T04:30:45;100409.59;;;-0.58;100.00
31681;BME280;18281;51.364;9.566;2024-02-28T04:33:10;100410.47;;;-0.61;100.00
31681;BME280;18281;51.364;9.566;2024-02-28T04:35:36;100417.41;;;-0.91;100.00
31681;BME280;18281;51.364;9.566;2024-02-28T04:38:01;100427.72;;;-0.74;100.00
31681;BME280;18281;51.364;9.566;2024-02-28T04:40:26;100421.66;;;-0.68;100.00
31681;BME280;18281;51.364;9.566;2024-02-28T04:42:52;100425.09;;;-0.69;100.00
31681;BME280;18281;51.364;9.566;2024-02-28T04:45:17;100424.25;;;-0.71;100.00
31681;BME280;18281;51.364;9.566;2024-02-28T05:24:18;100459.50;;;-0.73;100.00
31681;BME280;18281;51.364;9.566;2024-02-28T05:26:44;100453.47;;;-0.69;100.00
31681;BME280;18281;51.364;9.566;2024-02-28T05:29:09;100465.50;;;-0.68;100.00
31681;BME280;18281;51.364;9.566;2024-02-28T05:31:35;100456.91;;;-0.67;100.00
31681;BME280;18281;51.364;9.566;2024-02-28T05:34:02;100450.91;;;-0.75;100.00
31681;BME280;18281;51.364;9.566;2024-02-28T05:36:28;100454.34;;;-0.81;100.00
31681;BME280;18281;51.364;9.566;2024-02-28T05:38:55;100457.78;;;-0.74;100.00
31681;BME280;18281;51.364;9.566;2024-02-28T05:41:21;100458.66;;;-0.75;100.00
31681;BME280;18281;51.364;9.566;2024-02-28T05:43:52;100469.81;;;-0.75;100.00
31681;BME280;18281;51.364;9.566;2024-02-28T05:46:18;100465.50;;;-0.68;100.00
31681;BME280;18281;51.364;9.566;2024-02-28T05:48:44;100466.38;;;-0.69;100.00
31681;BME280;18281;51.364;9.566;2024-02-28T05:51:13;100468.03;;;1.10;100.00
31681;BME280;18281;51.364;9.566;2024-02-28T05:53:39;100466.91;;;2.12;100.00
31681;BME280;18281;51.364;9.566;2024-02-28T05:56:15;100477.53;;;2.58;100.00
31681;BME280;18281;51.364;9.566;2024-02-28T06:25:15;100515.22;;;-0.07;100.00
31681;BME280;18281;51.364;9.566;2024-02-28T06:27:45;100514.41;;;-0.19;100.00
31681;BME280;18281;51.364;9.566;2024-02-28T06:30:10;100515.25;;;-0.17;100.00
31681;BME280;18281;51.364;9.566;2024-02-28T07:21:06;100559.19;;;-0.34;100.00
31681;BME280;18281;51.364;9.566;2024-02-28T07:23:32;100560.88;;;-0.34;100.00
31681;BME280;18281;51.364;9.566;2024-02-28T07:25:57;100560.03;;;-0.35;100.00
31681;BME280;18281;51.364;9.566;2024-02-28T07:28:23;100571.19;;;-0.34;100.00
31681;BME280;18281;51.364;9.566;2024-02-28T07:30:48;100572.09;;;-0.35;100.00
31681;BME280;18281;51.364;9.566;2024-02-28T07:33:14;100577.22;;;-0.41;100.00
31681;BME280;18281;51.364;9.566;2024-02-28T07:35:46;100580.66;;;-0.42;100.00
31681;BME280;18281;51.364;9.566;2024-02-28T07:38:12;100573.78;;;-0.39;100.00
31681;BME280;18281;51.364;9.566;2024-02-28T07:40:37;100582.41;;;-0.43;100.00
31681;BME280;18281;51.364;9.566;2024-02-28T07:43:03;100578.97;;;-0.40;100.00
31681;BME280;18281;51.364;9.566;2024-02-28T07:45:28;100582.38;;;-0.38;100.00
31681;BME280;18281;51.364;9.566;2024-02-28T07:47:53;100583.25;;;-0.47;100.00
31681;BME280;18281;51.364;9.566;2024-02-28T07:50:19;100589.28;;;-0.42;100.00
31681;BME280;18281;51.364;9.566;2024-02-28T07:52:44;100590.13;;;-0.38;100.00
31681;BME280;18281;51.364;9.566;2024-02-28T07:55:10;100590.13;;;-0.34;100.00
31681;BME280;18281;51.364;9.566;2024-02-28T07:57:35;100584.13;;;-0.42;100.00
31681;BME280;18281;51.364;9.566;2024-02-28T08:00:01;100585.84;;;-0.42;100.00
31681;BME280;18281;51.364;9.566;2024-02-28T08:02:26;100589.25;;;-0.36;100.00
31681;BME280;18281;51.364;9.566;2024-02-28T08:04:51;100584.13;;;-0.42;100.00
31681;BME280;18281;51.364;9.566;2024-02-28T08:07:17;100588.41;;;-0.36;100.00
31681;BME280;18281;51.364;9.566;2024-02-28T08:09:42;100594.44;;;-0.31;100.00
31681;BME280;18281;51.364;9.566;2024-02-28T08:12:08;100596.16;;;-0.45;100.00
31681;BME280;18281;51.364;9.566;2024-02-28T08:14:33;100591.00;;;-0.52;100.00
31681;BME280;18281;51.364;9.566;2024-02-28T08:16:58;100588.41;;;-0.42;100.00
31681;BME280;18281;51.364;9.566;2024-02-28T08:19:24;100590.13;;;-0.37;100.00
31681;BME280;18281;51.364;9.566;2024-02-28T08:21:49;100585.81;;;-0.33;100.00
31681;BME280;18281;51.364;9.566;2024-02-28T08:24:14;100581.50;;;-0.25;100.00
31681;BME280;18281;51.364;9.566;2024-02-28T08:26:40;100581.53;;;-0.22;100.00
31681;BME280;18281;51.364;9.566;2024-02-28T08:29:07;100584.09;;;-0.22;100.00
31681;BME280;18281;51.364;9.566;2024-02-28T08:31:33;100595.28;;;-0.32;100.00
31681;BME280;18281;51.364;9.566;2024-02-28T08:33:58;100590.09;;;-0.26;100.00
31681;BME280;18281;51.364;9.566;2024-02-28T08:36:23;100596.16;;;-0.27;100.00
31681;BME280;18281;51.364;9.566;2024-02-28T08:38:49;100596.13;;;-0.30;100.00
31681;BME280;18281;51.364;9.566;2024-02-28T08:41:14;100600.41;;;-0.18;100.00
31681;BME280;18281;51.364;9.566;2024-02-28T08:43:39;100598.69;;;-0.11;100.00
31681;BME280;18281;51.364;9.566;2024-02-28T08:46:05;100601.28;;;-0.05;100.00
31681;BME280;18281;51.364;9.566;2024-02-28T08:48:32;100603.84;;;-0.11;100.00
31681;BME280;18281;51.364;9.566;2024-02-28T08:50:57;100602.97;;;-0.06;100.00
31681;BME280;18281;51.364;9.566;2024-02-28T08:53:23;100609.81;;;0.08;100.00
31681;BME280;18281;51.364;9.566;2024-02-28T08:55:48;100606.41;;;0.02;100.00
31681;BME280;18281;51.364;9.566;2024-02-28T08:58:14;100615.88;;;0.07;100.00
31681;BME280;18281;51.364;9.566;2024-02-28T09:00:39;100612.44;;;0.09;100.00
31681;BME280;18281;51.364;9.566;2024-02-28T09:03:05;100611.56;;;0.01;100.00
31681;BME280;18281;51.364;9.566;2024-02-28T09:05:30;100607.25;;;0.06;100.00
31681;BME280;18281;51.364;9.566;2024-02-28T09:07:56;100610.69;;;0.03;100.00
31681;BME280;18281;51.364;9.566;2024-02-28T09:10:22;100614.13;;;0.10;100.00
31681;BME280;18281;51.364;9.566;2024-02-28T09:12:49;100606.38;;;0.09;100.00
31681;BME280;18281;51.364;9.566;2024-02-28T09:15:14;100611.56;;;0.13;100.00
31681;BME280;18281;51.364;9.566;2024-02-28T09:17:40;100614.97;;;0.14;100.00
31681;BME280;18281;51.364;9.566;2024-02-28T09:20:06;100604.66;;;0.20;100.00
31681;BME280;18281;51.364;9.566;2024-02-28T09:22:32;100614.97;;;0.28;100.00
31681;BME280;18281;51.364;9.566;2024-02-28T09:24:57;100608.03;;;0.37;100.00
31681;BME280;18281;51.364;9.566;2024-02-28T09:27:23;100613.22;;;0.31;100.00
31681;BME280;18281;51.364;9.566;2024-02-28T09:29:50;100618.38;;;0.30;100.00
31681;BME280;18281;51.364;9.566;2024-02-28T09:32:15;100611.47;;;0.36;100.00
31681;BME280;18281;51.364;9.566;2024-02-28T09:34:40;100613.19;;;0.45;100.00
31681;BME280;18281;51.364;9.566;2024-02-28T09:37:06;100616.59;;;0.49;100.00
31681;BME280;18281;51.364;9.566;2024-02-28T09:39:31;100614.84;;;0.54;100.00
31681;BME280;18281;51.364;9.566;2024-02-28T09:41:56;100617.47;;;0.46;100.00
31681;BME280;18281;51.364;9.566;2024-02-28T09:44:23;100609.75;;;0.40;100.00
31681;BME280;18281;51.364;9.566;2024-02-28T09:46:51;100620.88;;;0.56;100.00
31681;BME280;18281;51.364;9.566;2024-02-28T09:49:18;100622.63;;;0.49;100.00
31681;BME280;18281;51.364;9.566;2024-02-28T09:51:44;100627.81;;;0.49;100.00
31681;BME280;18281;51.364;9.566;2024-02-28T09:54:09;100635.56;;;0.43;100.00
31681;BME280;18281;51.364;9.566;2024-02-28T09:56:34;100645.03;;;0.40;100.00
31681;BME280;18281;51.364;9.566;2024-02-28T09:59:00;100644.19;;;0.37;100.00
31681;BME280;18281;51.364;9.566;2024-02-28T10:01:29;100645.00;;;0.47;100.00
31681;BME280;18281;51.364;9.566;2024-02-28T10:03:56;100645.00;;;0.53;100.00
31681;BME280;18281;51.364;9.566;2024-02-28T10:06:24;100645.03;;;0.43;100.00
31681;BME280;18281;51.364;9.566;2024-02-28T10:08:49;100649.34;;;0.39;100.00
31681;BME280;18281;51.364;9.566;2024-02-28T10:11:22;100643.31;;;0.48;100.00
31681;BME280;18281;51.364;9.566;2024-02-28T10:13:48;100644.16;;;0.48;100.00
31681;BME280;18281;51.364;9.566;2024-02-28T10:16:13;100649.31;;;0.54;100.00
31681;BME280;18281;51.364;9.566;2024-02-28T10:18:45;100650.09;;;0.67;100.00
31681;BME280;18281;51.364;9.566;2024-02-28T10:21:11;100656.09;;;0.74;100.00
31681;BME280;18281;51.364;9.566;2024-02-28T10:23:44;100659.56;;;0.76;100.00
31681;BME280;18281;51.364;9.566;2024-02-28T10:26:10;100662.97;;;0.78;100.00
31681;BME280;18281;51.364;9.566;2024-02-28T10:31:57;100665.50;;;0.91;100.00
31681;BME280;18281;51.364;9.566;2024-02-28T10:34:23;100665.53;;;0.86;100.00
31681;BME280;18281;51.364;9.566;2024-02-28T10:36:49;100662.09;;;0.88;100.00
31681;BME280;18281;51.364;9.566;2024-02-28T10:39:14;100663.75;;;0.96;100.00
31681;BME280;18281;51.364;9.566;2024-02-28T10:41:41;100658.56;;;0.97;100.00
31681;BME280;18281;51.364;9.566;2024-02-28T10:44:08;100658.59;;;1.02;100.00
31681;BME280;18281;51.364;9.566;2024-02-28T10:46:34;100652.50;;;1.09;100.00
31681;BME280;18281;51.364;9.566;2024-02-28T10:49:00;100659.34;;;1.21;100.00
31681;BME280;18281;51.364;9.566;2024-02-28T10:51:26;100661.13;;;1.13;100.00
31681;BME280;18281;51.364;9.566;2024-02-28T10:54:02;100664.53;;;1.18;100.00
31681;BME280;18281;51.364;9.566;2024-02-28T10:56:32;100666.19;;;1.27;100.00
31681;BME280;18281;51.364;9.566;2024-02-28T10:58:59;100659.28;;;1.35;100.00
31681;BME280;18281;51.364;9.566;2024-02-28T11:01:25;100664.41;;;1.38;100.00
31681;BME280;18281;51.364;9.566;2024-02-28T11:03:52;100657.47;;;1.43;100.00
31681;BME280;18281;51.364;9.566;2024-02-28T11:06:18;100658.38;;;1.39;100.00
31681;BME280;18281;51.364;9.566;2024-02-28T11:08:47;100647.09;;;1.46;100.00
31681;BME280;18281;51.364;9.566;2024-02-28T11:11:14;100653.94;;;1.53;100.00
31681;BME280;18281;51.364;9.566;2024-02-28T11:13:51;100649.63;;;1.54;100.00
31681;BME280;18281;51.364;9.566;2024-02-28T11:16:17;100653.94;;;1.57;100.00
31681;BME280;18281;51.364;9.566;2024-02-28T11:18:48;100650.47;;;1.54;100.00
31681;BME280;18281;51.364;9.566;2024-02-28T11:21:15;100653.03;;;1.58;100.00
31681;BME280;18281;51.364;9.566;2024-02-28T11:23:41;100648.69;;;1.66;100.00
31681;BME280;18281;51.364;9.566;2024-02-28T11:26:10;100650.34;;;1.71;100.00
31681;BME280;18281;51.364;9.566;2024-02-28T11:28:36;100649.47;;;1.74;100.00
31681;BME280;18281;51.364;9.566;2024-02-28T11:31:01;100640.03;;;1.67;100.00
31681;BME280;18281;51.364;9.566;2024-02-28T11:33:27;100633.06;;;1.75;100.00
31681;BME280;18281;51.364;9.566;2024-02-28T11:35:56;100629.59;;;1.76;100.00
31681;BME280;18281;51.364;9.566;2024-02-28T11:38:24;100627.91;;;1.75;100.00
31681;BME280;18281;51.364;9.566;2024-02-28T11:40:49;100621.78;;;1.81;100.00
31681;BME280;18281;51.364;9.566;2024-02-28T11:43:15;100620.84;;;1.90;100.00
31681;BME280;18281;51.364;9.566;2024-02-28T11:45:40;100618.22;;;1.93;100.00
31681;BME280;18281;51.364;9.566;2024-02-28T11:48:07;100620.00;;;1.84;100.00
31681;BME280;18281;51.364;9.566;2024-02-28T11:50:32;100626.00;;;1.91;100.00
31681;BME280;18281;51.364;9.566;2024-02-28T11:52:57;100622.50;;;1.97;100.00
31681;BME280;18281;51.364;9.566;2024-02-28T11:55:25;100620.69;;;2.07;100.00
31681;BME280;18281;51.364;9.566;2024-02-28T11:57:54;100615.44;;;2.10;100.00
31681;BME280;18281;51.364;9.566;2024-02-28T12:00:19;100617.13;;;2.17;100.00
31681;BME280;18281;51.364;9.566;2024-02-28T12:02:44;100612.78;;;2.17;100.00
31681;BME280;18281;51.364;9.566;2024-02-28T12:05:10;100617.06;;;2.21;100.00
31681;BME280;18281;51.364;9.566;2024-02-28T12:07:36;100612.66;;;2.28;100.00
31681;BME280;18281;51.364;9.566;2024-02-28T12:10:01;100619.50;;;2.35;100.00
31681;BME280;18281;51.364;9.566;2024-02-28T12:12:27;100609.19;;;2.29;100.00
31681;BME280;18281;51.364;9.566;2024-02-28T12:14:53;100612.53;;;2.39;100.00
31681;BME280;18281;51.364;9.566;2024-02-28T12:17:24;100607.31;;;2.44;100.00
31681;BME280;18281;51.364;9.566;2024-02-28T12:19:50;100608.09;;;2.47;100.00
31681;BME280;18281;51.364;9.566;2024-02-28T12:22:16;100611.47;;;2.57;100.00
31681;BME280;18281;51.364;9.566;2024-02-28T12:24:41;100617.44;;;2.64;100.00
31681;BME280;18281;51.364;9.566;2024-02-28T12:27:07;100608.75;;;2.65;100.00
31681;BME280;18281;51.364;9.566;2024-02-28T12:29:32;100607.00;;;2.68;100.00
31681;BME280;18281;51.364;9.566;2024-02-28T12:31:57;100606.91;;;2.75;100.00
31681;BME280;18281;51.364;9.566;2024-02-28T12:34:23;100610.31;;;2.78;100.00
31681;BME280;18281;51.364;9.566;2024-02-28T12:36:48;100604.78;;;3.03;100.00
31681;BME280;18281;51.364;9.566;2024-02-28T12:39:14;100601.97;;;3.18;100.00
31681;BME280;18281;51.364;9.566;2024-02-28T12:41:39;100594.03;;;3.29;100.00
31681;BME280;18281;51.364;9.566;2024-02-28T12:44:05;100592.03;;;3.47;100.00
31681;BME280;18281;51.364;9.566;2024-02-28T12:46:32;100596.19;;;3.55;100.00
31681;BME280;18281;51.364;9.566;2024-02-28T12:48:58;100590.09;;;3.58;100.00
31681;BME280;18281;51.364;9.566;2024-02-28T12:51:40;100582.13;;;3.69;100.00
31681;BME280;18281;51.364;9.566;2024-02-28T12:54:07;100576.06;;;3.70;100.00
31681;BME280;18281;51.364;9.566;2024-02-28T12:56:34;100579.03;;;3.97;100.00
31681;BME280;18281;51.364;9.566;2024-02-28T12:58:59;100574.75;;;3.94;100.00
31681;BME280;18281;51.364;9.566;2024-02-28T13:01:25;100573.00;;;3.95;100.00
31681;BME280;18281;51.364;9.566;2024-02-28T13:03:50;100573.75;;;4.00;99.36
31681;BME280;18281;51.364;9.566;2024-02-28T13:06:16;100572.78;;;4.07;99.26
31681;BME280;18281;51.364;9.566;2024-02-28T13:08:41;100570.84;;;4.17;98.36
31681;BME280;18281;51.364;9.566;2024-02-28T13:11:06;100568.97;;;4.23;97.87
31681;BME280;18281;51.364;9.566;2024-02-28T13:13:33;100569.78;;;4.27;97.36
31681;BME280;18281;51.364;9.566;2024-02-28T13:15:58;100564.41;;;4.36;96.89
31681;BME280;18281;51.364;9.566;2024-02-28T13:18:27;100558.22;;;4.42;96.86
31681;BME280;18281;51.364;9.566;2024-02-28T13:20:52;100557.09;;;4.54;96.28
31681;BME280;18281;51.364;9.566;2024-02-28T13:23:17;100547.53;;;4.54;95.58
31681;BME280;18281;51.364;9.566;2024-02-28T13:25:44;100545.69;;;4.60;95.22
31681;BME280;18281;51.364;9.566;2024-02-28T13:28:10;100541.16;;;4.68;94.63
31681;BME280;18281;51.364;9.566;2024-02-28T13:30:35;100536.03;;;4.65;94.47
31681;BME280;18281;51.364;9.566;2024-02-28T13:33:02;100532.53;;;4.67;94.93
31681;BME280;18281;51.364;9.566;2024-02-28T13:35:30;100529.13;;;4.64;95.05
31681;BME280;18281;51.364;9.566;2024-02-28T13:37:56;100525.47;;;4.72;94.87
31681;BME280;18281;51.364;9.566;2024-02-28T13:40:28;100529.75;;;4.73;93.86
31681;BME280;18281;51.364;9.566;2024-02-28T13:42:53;100529.50;;;4.86;93.21
31681;BME280;18281;51.364;9.566;2024-02-28T13:45:19;100526.16;;;4.81;92.92
31681;BME280;18281;51.364;9.566;2024-02-28T13:47:44;100519.03;;;4.89;94.43
31681;BME280;18281;51.364;9.566;2024-02-28T13:50:10;100513.97;;;5.85;100.00
31681;BME280;18281;51.364;9.566;2024-02-28T13:52:35;100521.53;;;6.26;100.00
31681;BME280;18281;51.364;9.566;2024-02-28T13:55:01;100514.56;;;6.54;100.00
31681;BME280;18281;51.364;9.566;2024-02-28T13:57:26;100506.19;;;6.73;100.00
31681;BME280;18281;51.364;9.566;2024-02-28T13:59:52;100514.78;;;6.48;100.00
31681;BME280;18281;51.364;9.566;2024-02-28T14:02:20;100505.34;;;6.14;100.00
31681;BME280;18281;51.364;9.566;2024-02-28T14:04:46;100508.66;;;5.89;100.00
31681;BME280;18281;51.364;9.566;2024-02-28T14:07:14;100508.97;;;5.46;98.77
31681;BME280;18281;51.364;9.566;2024-02-28T14:09:41;100508.88;;;5.49;100.00
31681;BME280;18281;51.364;9.566;2024-02-28T14:12:07;100502.78;;;5.50;100.00
31681;BME280;18281;51.364;9.566;2024-02-28T14:14:42;100512.66;;;5.37;99.21
31681;BME280;18281;51.364;9.566;2024-02-28T14:17:08;100508.59;;;5.25;97.01
31681;BME280;18281;51.364;9.566;2024-02-28T14:19:57;100501.84;;;5.16;97.00
31681;BME280;18281;51.364;9.566;2024-02-28T14:22:31;100502.59;;;5.21;99.70
31681;BME280;18281;51.364;9.566;2024-02-28T14:25:25;100502.69;;;5.18;98.47
31681;BME280;18281;51.364;9.566;2024-02-28T14:28:01;100495.09;;;5.09;98.00
31681;BME280;18281;51.364;9.566;2024-02-28T14:30:47;100493.97;;;4.85;96.72
31681;BME280;18281;51.364;9.566;2024-02-28T14:33:39;100501.47;;;4.97;95.64
31681;BME280;18281;51.364;9.566;2024-02-28T14:36:18;100498.13;;;4.92;96.11